Time,TemperatureF,DewpointF,PressureIn,WindDirection,WindDirectionDegrees,WindSpeedMPH,WindSpeedGustMPH,Humidity,HourlyPrecipIn,Conditions,Clouds,dailyrainin,SolarRadiationWatts/m^2,SoftwareType,DateUTC
2013-05-22 00:11:00,45.0,15.0,-100.00,SSW,200,10.0,30.0,29,0.00,,,0.00,1.000000,,2013-05-22 07:11:00,
2013-05-22 00:21:00,45.0,15.0,-100.00,SSW,200,10.0,30.0,29,0.00,,,0.00,1.000000,,2013-05-22 07:21:00,
2013-05-22 00:31:00,45.0,15.0,-100.00,SSW,200,10.0,30.0,29,0.00,,,0.00,1.000000,,2013-05-22 07:31:00,
2013-05-22 00:41:00,45.0,15.0,-100.00,SSW,200,10.0,30.0,29,0.00,,,0.00,1.000000,,2013-05-22 07:41:00,
2013-05-22 00:51:00,44.0,17.0,-100.00,South,187,9.0,25.0,33,0.00,,,0.00,1.000000,,2013-05-22 07:51:00,
2013-05-22 01:11:00,44.0,17.0,-100.00,South,187,9.0,25.0,33,0.00,,,0.00,1.000000,,2013-05-22 08:11:00,
2013-05-22 01:22:00,44.0,17.0,-100.00,South,187,9.0,25.0,33,0.00,,,0.00,1.000000,,2013-05-22 08:22:00,
2013-05-22 01:31:00,44.0,17.0,-100.00,South,187,9.0,25.0,33,0.00,,,0.00,1.000000,,2013-05-22 08:31:00,
2013-05-22 01:41:00,44.0,17.0,-100.00,South,187,9.0,25.0,33,0.00,,,0.00,1.000000,,2013-05-22 08:41:00,
2013-05-22 01:51:00,43.0,19.0,-100.00,South,185,9.0,27.0,37,0.00,,,0.00,1.000000,,2013-05-22 08:51:00,
2013-05-22 02:11:00,43.0,19.0,-100.00,South,185,9.0,27.0,37,0.00,,,0.00,1.000000,,2013-05-22 09:11:00,
2013-05-22 02:21:00,43.0,19.0,-100.00,South,185,9.0,27.0,37,0.00,,,0.00,1.000000,,2013-05-22 09:21:00,
2013-05-22 02:32:00,43.0,19.0,-100.00,South,185,9.0,27.0,37,0.00,,,0.00,1.000000,,2013-05-22 09:32:00,
2013-05-22 02:42:00,43.0,19.0,-100.00,South,185,9.0,27.0,37,0.00,,,0.00,1.000000,,2013-05-22 09:42:00,
2013-05-22 02:51:00,43.0,16.0,-100.00,SSW,196,8.0,26.0,33,0.00,,,0.00,1.000000,,2013-05-22 09:51:00,
2013-05-22 03:12:00,43.0,16.0,-100.00,SSW,196,8.0,26.0,33,0.00,,,0.00,1.000000,,2013-05-22 10:12:00,
2013-05-22 03:22:00,43.0,16.0,-100.00,SSW,196,8.0,26.0,33,0.00,,,0.00,1.000000,,2013-05-22 10:22:00,
2013-05-22 03:32:00,43.0,16.0,-100.00,SSW,196,8.0,26.0,33,0.00,,,0.00,1.000000,,2013-05-22 10:32:00,
2013-05-22 03:42:00,43.0,16.0,-100.00,SSW,196,8.0,26.0,33,0.00,,,0.00,1.000000,,2013-05-22 10:42:00,
2013-05-22 03:51:00,41.0,17.0,-100.00,SW,220,6.0,18.0,38,0.00,,,0.00,1.000000,,2013-05-22 10:51:00,
2013-05-22 04:11:00,41.0,17.0,-100.00,SW,220,6.0,18.0,38,0.00,,,0.00,1.000000,,2013-05-22 11:11:00,
2013-05-22 04:21:00,41.0,17.0,-100.00,SW,220,6.0,18.0,38,0.00,,,0.00,1.000000,,2013-05-22 11:21:00,
2013-05-22 04:32:00,41.0,17.0,-100.00,SW,220,6.0,18.0,38,0.00,,,0.00,1.000000,,2013-05-22 11:32:00,
2013-05-22 04:41:00,41.0,17.0,-100.00,SW,220,6.0,18.0,38,0.00,,,0.00,1.000000,,2013-05-22 11:41:00,
2013-05-22 04:51:00,40.0,22.0,-100.00,SSW,208,7.0,22.0,49,0.00,,,0.00,1.000000,,2013-05-22 11:51:00,
2013-05-22 05:12:00,40.0,22.0,-100.00,SSW,208,7.0,22.0,49,0.00,,,0.00,1.000000,,2013-05-22 12:12:00,
2013-05-22 05:22:00,40.0,22.0,-100.00,SSW,208,7.0,22.0,49,0.00,,,0.00,1.000000,,2013-05-22 12:22:00,
2013-05-22 05:32:00,40.0,22.0,-100.00,SSW,208,7.0,22.0,49,0.00,,,0.00,1.000000,,2013-05-22 12:32:00,
2013-05-22 05:42:00,40.0,22.0,-100.00,SSW,208,7.0,22.0,49,0.00,,,0.00,1.000000,,2013-05-22 12:42:00,
2013-05-22 05:51:00,41.0,20.0,-100.00,SSW,203,8.0,18.0,43,0.00,,,0.00,2.000000,,2013-05-22 12:51:00,
2013-05-22 06:11:00,41.0,20.0,-100.00,SSW,203,8.0,18.0,43,0.00,,,0.00,2.000000,,2013-05-22 13:11:00,
2013-05-22 06:22:00,41.0,20.0,-100.00,SSW,203,8.0,18.0,43,0.00,,,0.00,2.000000,,2013-05-22 13:22:00,
2013-05-22 06:31:00,41.0,20.0,-100.00,SSW,203,8.0,18.0,43,0.00,,,0.00,2.000000,,2013-05-22 13:31:00,
2013-05-22 06:41:00,41.0,20.0,-100.00,SSW,203,8.0,18.0,43,0.00,,,0.00,2.000000,,2013-05-22 13:41:00,
2013-05-22 06:51:00,42.0,16.0,-100.00,SSW,199,8.0,23.0,34,0.00,,,0.00,22.000000,,2013-05-22 13:51:00,
2013-05-22 07:11:00,42.0,16.0,-100.00,SSW,199,8.0,23.0,34,0.00,,,0.00,22.000000,,2013-05-22 14:11:00,
2013-05-22 07:21:00,42.0,16.0,-100.00,SSW,199,8.0,23.0,34,0.00,,,0.00,22.000000,,2013-05-22 14:21:00,
2013-05-22 07:32:00,42.0,16.0,-100.00,SSW,199,8.0,23.0,34,0.00,,,0.00,22.000000,,2013-05-22 14:32:00,
2013-05-22 07:41:00,42.0,16.0,-100.00,SSW,199,8.0,23.0,34,0.00,,,0.00,22.000000,,2013-05-22 14:41:00,
2013-05-22 07:51:00,46.0,16.0,-100.00,SSW,200,7.0,20.0,29,0.00,,,0.00,269.000000,,2013-05-22 14:51:00,
2013-05-22 08:11:00,46.0,16.0,-100.00,SSW,200,7.0,20.0,29,0.00,,,0.00,269.000000,,2013-05-22 15:11:00,
2013-05-22 08:21:00,46.0,16.0,-100.00,SSW,200,7.0,20.0,29,0.00,,,0.00,269.000000,,2013-05-22 15:21:00,
2013-05-22 08:32:00,46.0,16.0,-100.00,SSW,200,7.0,20.0,29,0.00,,,0.00,269.000000,,2013-05-22 15:32:00,
2013-05-22 08:42:00,46.0,16.0,-100.00,SSW,200,7.0,20.0,29,0.00,,,0.00,269.000000,,2013-05-22 15:42:00,
2013-05-22 08:51:00,48.0,23.0,-100.00,South,177,4.0,18.0,37,0.00,,,0.00,524.000000,,2013-05-22 15:51:00,
2013-05-22 09:12:00,48.0,23.0,-100.00,South,177,4.0,18.0,37,0.00,,,0.00,524.000000,,2013-05-22 16:12:00,
2013-05-22 09:23:00,48.0,23.0,-100.00,South,177,4.0,18.0,37,0.00,,,0.00,524.000000,,2013-05-22 16:23:00,
2013-05-22 09:32:00,48.0,23.0,-100.00,South,177,4.0,18.0,37,0.00,,,0.00,524.000000,,2013-05-22 16:32:00,
2013-05-22 09:42:00,48.0,23.0,-100.00,South,177,4.0,18.0,37,0.00,,,0.00,524.000000,,2013-05-22 16:42:00,
2013-05-22 09:51:00,49.0,20.0,-100.00,SW,232,6.0,15.0,32,0.00,,,0.00,715.000000,,2013-05-22 16:51:00,
2013-05-22 10:11:00,49.0,20.0,-100.00,SW,232,6.0,15.0,32,0.00,,,0.00,715.000000,,2013-05-22 17:11:00,
2013-05-22 10:22:00,49.0,20.0,-100.00,SW,232,6.0,15.0,32,0.00,,,0.00,715.000000,,2013-05-22 17:22:00,
2013-05-22 10:32:00,49.0,20.0,-100.00,SW,232,6.0,15.0,32,0.00,,,0.00,715.000000,,2013-05-22 17:32:00,
2013-05-22 10:42:00,49.0,20.0,-100.00,SW,232,6.0,15.0,32,0.00,,,0.00,715.000000,,2013-05-22 17:42:00,
2013-05-22 10:51:00,53.0,17.0,-100.00,West,259,5.0,14.0,24,0.00,,,0.00,875.000000,,2013-05-22 17:51:00,
2013-05-22 11:14:00,53.0,17.0,-100.00,West,259,5.0,14.0,24,0.00,,,0.00,875.000000,,2013-05-22 18:14:00,
2013-05-22 11:22:00,53.0,17.0,-100.00,West,259,5.0,14.0,24,0.00,,,0.00,875.000000,,2013-05-22 18:22:00,
2013-05-22 11:33:00,53.0,17.0,-100.00,West,259,5.0,14.0,24,0.00,,,0.00,875.000000,,2013-05-22 18:33:00,
2013-05-22 11:42:00,53.0,17.0,-100.00,West,259,5.0,14.0,24,0.00,,,0.00,875.000000,,2013-05-22 18:42:00,
2013-05-22 11:51:00,54.0,11.0,-100.00,West,263,6.0,16.0,18,0.00,,,0.00,985.000000,,2013-05-22 18:51:00,
2013-05-22 12:11:00,54.0,11.0,-100.00,West,263,6.0,16.0,18,0.00,,,0.00,985.000000,,2013-05-22 19:11:00,
2013-05-22 12:21:00,54.0,11.0,-100.00,West,263,6.0,16.0,18,0.00,,,0.00,985.000000,,2013-05-22 19:21:00,
2013-05-22 12:32:00,54.0,11.0,-100.00,West,263,6.0,16.0,18,0.00,,,0.00,985.000000,,2013-05-22 19:32:00,
2013-05-22 12:41:00,54.0,11.0,-100.00,West,263,6.0,16.0,18,0.00,,,0.00,985.000000,,2013-05-22 19:41:00,
2013-05-22 12:51:00,54.0,17.0,-100.00,WNW,290,6.0,18.0,23,0.00,,,0.00,1043.000000,,2013-05-22 19:51:00,
2013-05-22 13:11:00,54.0,17.0,-100.00,WNW,290,6.0,18.0,23,0.00,,,0.00,1043.000000,,2013-05-22 20:11:00,
2013-05-22 13:21:00,54.0,17.0,-100.00,WNW,290,6.0,18.0,23,0.00,,,0.00,1043.000000,,2013-05-22 20:21:00,
2013-05-22 13:32:00,54.0,17.0,-100.00,WNW,290,6.0,18.0,23,0.00,,,0.00,1043.000000,,2013-05-22 20:32:00,
2013-05-22 13:41:00,54.0,17.0,-100.00,WNW,290,6.0,18.0,23,0.00,,,0.00,1043.000000,,2013-05-22 20:41:00,
2013-05-22 13:51:00,53.0,17.0,-100.00,WSW,247,5.0,14.0,24,0.00,,,0.00,1038.000000,,2013-05-22 20:51:00,
2013-05-22 14:11:00,53.0,17.0,-100.00,WSW,247,5.0,14.0,24,0.00,,,0.00,1038.000000,,2013-05-22 21:11:00,
2013-05-22 14:21:00,53.0,17.0,-100.00,WSW,247,5.0,14.0,24,0.00,,,0.00,1038.000000,,2013-05-22 21:21:00,
2013-05-22 14:32:00,53.0,17.0,-100.00,WSW,247,5.0,14.0,24,0.00,,,0.00,1038.000000,,2013-05-22 21:32:00,
2013-05-22 14:42:00,53.0,17.0,-100.00,WSW,247,5.0,14.0,24,0.00,,,0.00,1038.000000,,2013-05-22 21:42:00,
2013-05-22 15:51:00,54.0,14.0,-100.00,WSW,246,5.0,16.0,20,-99.99,,,0.00,877.000000,,2013-05-22 22:51:00,
2013-05-22 16:12:00,54.0,14.0,-100.00,WSW,246,5.0,16.0,20,-99.99,,,0.00,877.000000,,2013-05-22 23:12:00,
2013-05-22 16:21:00,54.0,14.0,-100.00,WSW,246,5.0,16.0,20,-99.99,,,0.00,877.000000,,2013-05-22 23:21:00,
2013-05-22 16:32:00,54.0,14.0,-100.00,WSW,246,5.0,16.0,20,-99.99,,,0.00,877.000000,,2013-05-22 23:32:00,
2013-05-22 16:42:00,54.0,14.0,-100.00,WSW,246,5.0,16.0,20,-99.99,,,0.00,877.000000,,2013-05-22 23:42:00,
2013-05-22 16:51:00,52.0,14.0,-100.00,South,185,6.0,15.0,22,0.00,,,0.00,716.000000,,2013-05-22 23:51:00,
2013-05-22 17:11:00,52.0,14.0,-100.00,South,185,6.0,15.0,22,0.00,,,0.00,716.000000,,2013-05-23 00:11:00,
2013-05-22 17:22:00,52.0,14.0,-100.00,South,185,6.0,15.0,22,0.00,,,0.00,716.000000,,2013-05-23 00:22:00,
2013-05-22 17:31:00,52.0,14.0,-100.00,South,185,6.0,15.0,22,0.00,,,0.00,716.000000,,2013-05-23 00:31:00,
2013-05-22 17:41:00,52.0,14.0,-100.00,South,185,6.0,15.0,22,0.00,,,0.00,716.000000,,2013-05-23 00:41:00,
2013-05-22 17:51:00,50.0,14.0,-100.00,SW,225,6.0,18.0,23,0.00,,,0.00,525.000000,,2013-05-23 00:51:00,
2013-05-22 18:11:00,50.0,14.0,-100.00,SW,225,6.0,18.0,23,0.00,,,0.00,525.000000,,2013-05-23 01:11:00,
2013-05-22 18:21:00,50.0,14.0,-100.00,SW,225,6.0,18.0,23,0.00,,,0.00,525.000000,,2013-05-23 01:21:00,
2013-05-22 18:32:00,50.0,14.0,-100.00,SW,225,6.0,18.0,23,0.00,,,0.00,525.000000,,2013-05-23 01:32:00,
2013-05-22 18:42:00,50.0,14.0,-100.00,SW,225,6.0,18.0,23,0.00,,,0.00,525.000000,,2013-05-23 01:42:00,
2013-05-22 18:51:00,49.0,16.0,-100.00,WSW,239,4.0,14.0,26,0.00,,,0.00,320.000000,,2013-05-23 01:51:00,
2013-05-22 19:11:00,49.0,16.0,-100.00,WSW,239,4.0,14.0,26,0.00,,,0.00,320.000000,,2013-05-23 02:11:00,
2013-05-22 19:21:00,49.0,16.0,-100.00,WSW,239,4.0,14.0,26,0.00,,,0.00,320.000000,,2013-05-23 02:21:00,
2013-05-22 19:31:00,49.0,16.0,-100.00,WSW,239,4.0,14.0,26,0.00,,,0.00,320.000000,,2013-05-23 02:31:00,
2013-05-22 19:42:00,49.0,16.0,-100.00,WSW,239,4.0,14.0,26,0.00,,,0.00,320.000000,,2013-05-23 02:42:00,
2013-05-22 19:51:00,42.0,17.0,-100.00,SE,146,3.0,8.0,36,0.00,,,0.00,75.000000,,2013-05-23 02:51:00,
2013-05-22 20:11:00,42.0,17.0,-100.00,SE,146,3.0,8.0,36,0.00,,,0.00,75.000000,,2013-05-23 03:11:00,
2013-05-22 20:21:00,42.0,17.0,-100.00,SE,146,3.0,8.0,36,0.00,,,0.00,75.000000,,2013-05-23 03:21:00,
2013-05-22 20:33:00,42.0,17.0,-100.00,SE,146,3.0,8.0,36,0.00,,,0.00,75.000000,,2013-05-23 03:33:00,
2013-05-22 20:43:00,42.0,17.0,-100.00,SE,146,3.0,8.0,36,0.00,,,0.00,75.000000,,2013-05-23 03:43:00,
2013-05-22 20:51:00,38.0,19.0,-100.00,SSE,149,3.0,6.0,46,0.00,,,0.00,4.000000,,2013-05-23 03:51:00,
2013-05-22 21:12:00,38.0,19.0,-100.00,SSE,149,3.0,6.0,46,0.00,,,0.00,4.000000,,2013-05-23 04:12:00,
2013-05-22 21:22:00,38.0,19.0,-100.00,SSE,149,3.0,6.0,46,0.00,,,0.00,4.000000,,2013-05-23 04:22:00,
2013-05-22 21:33:00,38.0,19.0,-100.00,SSE,149,3.0,6.0,46,0.00,,,0.00,4.000000,,2013-05-23 04:33:00,
2013-05-22 21:42:00,38.0,19.0,-100.00,SSE,149,3.0,6.0,46,0.00,,,0.00,4.000000,,2013-05-23 04:42:00,
2013-05-22 21:51:00,37.0,20.0,-100.00,SSE,162,3.0,9.0,49,0.00,,,0.00,1.000000,,2013-05-23 04:51:00,
2013-05-22 22:11:00,37.0,20.0,-100.00,SSE,162,3.0,9.0,49,0.00,,,0.00,1.000000,,2013-05-23 05:11:00,
2013-05-22 22:22:00,37.0,20.0,-100.00,SSE,162,3.0,9.0,49,0.00,,,0.00,1.000000,,2013-05-23 05:22:00,
2013-05-22 22:32:00,37.0,20.0,-100.00,SSE,162,3.0,9.0,49,0.00,,,0.00,1.000000,,2013-05-23 05:32:00,
2013-05-22 22:42:00,37.0,20.0,-100.00,SSE,162,3.0,9.0,49,0.00,,,0.00,1.000000,,2013-05-23 05:42:00,
2013-05-22 22:51:00,34.0,20.0,-100.00,South,177,3.0,7.0,55,0.00,,,0.00,1.000000,,2013-05-23 05:51:00,
2013-05-22 23:12:00,34.0,20.0,-100.00,South,177,3.0,7.0,55,0.00,,,0.00,1.000000,,2013-05-23 06:12:00,
2013-05-22 23:21:00,34.0,20.0,-100.00,South,177,3.0,7.0,55,0.00,,,0.00,1.000000,,2013-05-23 06:21:00,
2013-05-22 23:31:00,34.0,20.0,-100.00,South,177,3.0,7.0,55,0.00,,,0.00,1.000000,,2013-05-23 06:31:00,
2013-05-22 23:41:00,34.0,20.0,-100.00,South,177,3.0,7.0,55,0.00,,,0.00,1.000000,,2013-05-23 06:41:00,
2013-05-22 23:51:00,30.0,21.0,-100.00,NW,323,0.0,7.0,69,0.00,,,0.00,1.000000,,2013-05-23 06:51:00,